Terminal Aerodrome Forecast
Issued by NWS

Home | Current Version | Previous Version | Graphics & Text | Print | Product List | Glossary On
Versions: 1 2 3 4 5 6 7 8 9 10 11 12 13 14 15
000
FTUS43 KMPX 211512 AAB
TAFRWF
TAF AMD
KRWF 211512Z 2115/2212 17012KT P6SM VCSH FEW040 SCT070 BKN090
     FM211600 16012KT P6SM FEW030 BKN050 OVC150
     FM220100 14005KT P6SM VCTS BKN050CB OVC100
      TEMPO 2202/2204 5SM -TSRA BKN040CB
     FM220600 29007KT P6SM SCT025 BKN060=

USA.gov is the U.S. government's official web portal to all federal, state and local government web resources and services.